sensor_id;sensor_type;location;lat;lon;timestamp;temperature;humidity
74081;SHT31;62438;52.228;6.864;2023-01-15T00:01:32;7.26;93.39
74081;SHT31;62438;52.228;6.864;2023-01-15T00:03:36;7.26;93.58
74081;SHT31;62438;52.228;6.864;2023-01-15T00:05:36;7.23;93.68
74081;SHT31;62438;52.228;6.864;2023-01-15T00:07:37;7.20;94.41
74081;SHT31;62438;52.228;6.864;2023-01-15T00:09:38;7.19;94.20
74081;SHT31;62438;52.228;6.864;2023-01-15T00:11:38;7.27;93.55
74081;SHT31;62438;52.228;6.864;2023-01-15T00:13:39;7.31;92.95
74081;SHT31;62438;52.228;6.864;2023-01-15T00:15:40;7.33;92.79
74081;SHT31;62438;52.228;6.864;2023-01-15T00:17:40;7.33;92.70
74081;SHT31;62438;52.228;6.864;2023-01-15T00:19:40;7.23;93.25
74081;SHT31;62438;52.228;6.864;2023-01-15T00:21:41;7.22;93.44
74081;SHT31;62438;52.228;6.864;2023-01-15T00:23:41;7.28;91.46
74081;SHT31;62438;52.228;6.864;2023-01-15T00:26:00;7.33;90.82
74081;SHT31;62438;52.228;6.864;2023-01-15T00:28:19;7.23;91.92
74081;SHT31;62438;52.228;6.864;2023-01-15T00:30:20;7.30;90.35
74081;SHT31;62438;52.228;6.864;2023-01-15T00:32:20;7.27;90.87
74081;SHT31;62438;52.228;6.864;2023-01-15T00:34:21;7.24;90.94
74081;SHT31;62438;52.228;6.864;2023-01-15T00:36:22;7.22;90.78
74081;SHT31;62438;52.228;6.864;2023-01-15T00:38:22;7.23;90.66
74081;SHT31;62438;52.228;6.864;2023-01-15T00:40:23;7.26;89.59
74081;SHT31;62438;52.228;6.864;2023-01-15T00:42:23;7.19;89.86
74081;SHT31;62438;52.228;6.864;2023-01-15T00:44:24;7.17;89.75
74081;SHT31;62438;52.228;6.864;2023-01-15T00:46:24;7.16;89.83
74081;SHT31;62438;52.228;6.864;2023-01-15T00:48:24;7.20;89.42
74081;SHT31;62438;52.228;6.864;2023-01-15T00:50:25;7.23;89.13
74081;SHT31;62438;52.228;6.864;2023-01-15T00:52:25;7.15;89.45
74081;SHT31;62438;52.228;6.864;2023-01-15T00:54:26;7.12;90.34
74081;SHT31;62438;52.228;6.864;2023-01-15T00:56:27;7.13;89.73
74081;SHT31;62438;52.228;6.864;2023-01-15T00:58:30;7.09;89.75
74081;SHT31;62438;52.228;6.864;2023-01-15T01:00:31;7.13;88.80
74081;SHT31;62438;52.228;6.864;2023-01-15T01:02:31;7.16;88.54
74081;SHT31;62438;52.228;6.864;2023-01-15T01:04:32;7.13;88.41
74081;SHT31;62438;52.228;6.864;2023-01-15T01:06:32;7.13;88.42
74081;SHT31;62438;52.228;6.864;2023-01-15T01:08:32;7.12;88.07
74081;SHT31;62438;52.228;6.864;2023-01-15T01:10:33;7.07;88.71
74081;SHT31;62438;52.228;6.864;2023-01-15T01:12:33;7.09;88.16
74081;SHT31;62438;52.228;6.864;2023-01-15T01:14:35;7.09;87.95
74081;SHT31;62438;52.228;6.864;2023-01-15T01:16:38;7.09;87.54
74081;SHT31;62438;52.228;6.864;2023-01-15T01:18:39;7.13;87.41
74081;SHT31;62438;52.228;6.864;2023-01-15T01:20:39;7.12;87.68
74081;SHT31;62438;52.228;6.864;2023-01-15T01:22:40;7.10;87.66
74081;SHT31;62438;52.228;6.864;2023-01-15T01:24:41;7.22;87.06
74081;SHT31;62438;52.228;6.864;2023-01-15T01:26:42;7.19;87.56
74081;SHT31;62438;52.228;6.864;2023-01-15T01:28:50;7.23;86.40
74081;SHT31;62438;52.228;6.864;2023-01-15T01:30:51;7.28;86.38
74081;SHT31;62438;52.228;6.864;2023-01-15T01:32:51;7.16;88.31
74081;SHT31;62438;52.228;6.864;2023-01-15T01:34:51;7.15;87.93
74081;SHT31;62438;52.228;6.864;2023-01-15T01:36:52;7.17;87.41
74081;SHT31;62438;52.228;6.864;2023-01-15T01:38:52;7.23;86.85
74081;SHT31;62438;52.228;6.864;2023-01-15T01:40:53;7.16;87.11
74081;SHT31;62438;52.228;6.864;2023-01-15T01:42:53;7.20;86.46
74081;SHT31;62438;52.228;6.864;2023-01-15T01:44:58;7.15;87.79
74081;SHT31;62438;52.228;6.864;2023-01-15T01:47:00;7.09;87.99
74081;SHT31;62438;52.228;6.864;2023-01-15T01:49:08;7.12;87.04
74081;SHT31;62438;52.228;6.864;2023-01-15T01:51:11;7.07;87.78
74081;SHT31;62438;52.228;6.864;2023-01-15T01:53:15;7.07;87.63
74081;SHT31;62438;52.228;6.864;2023-01-15T01:55:19;7.06;87.28
74081;SHT31;62438;52.228;6.864;2023-01-15T01:57:21;7.12;87.15
74081;SHT31;62438;52.228;6.864;2023-01-15T01:59:24;7.13;87.19
74081;SHT31;62438;52.228;6.864;2023-01-15T02:01:25;7.09;87.48
74081;SHT31;62438;52.228;6.864;2023-01-15T02:03:30;7.07;87.21
74081;SHT31;62438;52.228;6.864;2023-01-15T02:05:34;7.03;87.94
74081;SHT31;62438;52.228;6.864;2023-01-15T02:07:36;7.05;87.60
74081;SHT31;62438;52.228;6.864;2023-01-15T02:09:37;7.07;87.49
74081;SHT31;62438;52.228;6.864;2023-01-15T02:11:38;7.07;87.04
74081;SHT31;62438;52.228;6.864;2023-01-15T02:14:08;7.03;87.82
74081;SHT31;62438;52.228;6.864;2023-01-15T02:16:19;6.99;87.47
74081;SHT31;62438;52.228;6.864;2023-01-15T02:20:57;7.02;87.85
74081;SHT31;62438;52.228;6.864;2023-01-15T02:23:21;7.02;88.04
74081;SHT31;62438;52.228;6.864;2023-01-15T02:25:31;6.98;88.55
74081;SHT31;62438;52.228;6.864;2023-01-15T02:27:34;7.00;87.59
74081;SHT31;62438;52.228;6.864;2023-01-15T02:30:05;7.03;87.27
74081;SHT31;62438;52.228;6.864;2023-01-15T02:32:11;7.03;87.38
74081;SHT31;62438;52.228;6.864;2023-01-15T02:34:14;6.99;87.89
74081;SHT31;62438;52.228;6.864;2023-01-15T02:36:18;7.00;87.30
74081;SHT31;62438;52.228;6.864;2023-01-15T02:38:21;6.98;87.76
74081;SHT31;62438;52.228;6.864;2023-01-15T02:40:24;6.98;87.61
74081;SHT31;62438;52.228;6.864;2023-01-15T02:42:28;6.96;86.85
74081;SHT31;62438;52.228;6.864;2023-01-15T02:44:30;6.98;86.81
74081;SHT31;62438;52.228;6.864;2023-01-15T02:46:33;6.93;87.29
74081;SHT31;62438;52.228;6.864;2023-01-15T02:48:36;6.92;87.72
74081;SHT31;62438;52.228;6.864;2023-01-15T02:50:48;6.91;87.37
74081;SHT31;62438;52.228;6.864;2023-01-15T02:52:53;6.93;86.54
74081;SHT31;62438;52.228;6.864;2023-01-15T02:55:04;6.88;88.03
74081;SHT31;62438;52.228;6.864;2023-01-15T02:57:06;6.85;87.51
74081;SHT31;62438;52.228;6.864;2023-01-15T02:59:14;6.78;87.55
74081;SHT31;62438;52.228;6.864;2023-01-15T03:01:31;6.79;87.48
74081;SHT31;62438;52.228;6.864;2023-01-15T03:03:51;6.77;87.09
74081;SHT31;62438;52.228;6.864;2023-01-15T03:06:10;6.68;87.15
74081;SHT31;62438;52.228;6.864;2023-01-15T03:08:12;6.68;87.29
74081;SHT31;62438;52.228;6.864;2023-01-15T03:10:13;6.65;86.90
74081;SHT31;62438;52.228;6.864;2023-01-15T03:12:17;6.65;86.63
74081;SHT31;62438;52.228;6.864;2023-01-15T03:14:37;6.63;86.56
74081;SHT31;62438;52.228;6.864;2023-01-15T03:16:55;6.52;87.23
74081;SHT31;62438;52.228;6.864;2023-01-15T03:21:20;6.59;85.97
74081;SHT31;62438;52.228;6.864;2023-01-15T03:23:23;6.63;86.12
74081;SHT31;62438;52.228;6.864;2023-01-15T03:25:30;6.64;86.21
74081;SHT31;62438;52.228;6.864;2023-01-15T03:27:32;6.59;86.89
74081;SHT31;62438;52.228;6.864;2023-01-15T03:29:45;6.54;86.51
74081;SHT31;62438;52.228;6.864;2023-01-15T03:31:46;6.52;87.34
74081;SHT31;62438;52.228;6.864;2023-01-15T03:33:48;6.42;87.34
74081;SHT31;62438;52.228;6.864;2023-01-15T03:35:53;6.41;87.87
74081;SHT31;62438;52.228;6.864;2023-01-15T03:37:56;6.40;87.93
74081;SHT31;62438;52.228;6.864;2023-01-15T03:39:57;6.41;88.30
74081;SHT31;62438;52.228;6.864;2023-01-15T03:51:25;6.27;90.10
74081;SHT31;62438;52.228;6.864;2023-01-15T03:53:41;6.26;90.37
74081;SHT31;62438;52.228;6.864;2023-01-15T03:55:44;6.27;90.27
74081;SHT31;62438;52.228;6.864;2023-01-15T03:57:56;6.27;90.32
74081;SHT31;62438;52.228;6.864;2023-01-15T03:59:59;6.26;90.54
74081;SHT31;62438;52.228;6.864;2023-01-15T04:02:02;6.26;90.04
74081;SHT31;62438;52.228;6.864;2023-01-15T04:04:05;6.24;89.92
74081;SHT31;62438;52.228;6.864;2023-01-15T04:06:05;6.21;90.06
74081;SHT31;62438;52.228;6.864;2023-01-15T04:08:07;6.23;89.97
74081;SHT31;62438;52.228;6.864;2023-01-15T04:10:09;6.19;89.55
74081;SHT31;62438;52.228;6.864;2023-01-15T04:12:10;6.20;88.85
74081;SHT31;62438;52.228;6.864;2023-01-15T04:14:12;6.23;88.75
74081;SHT31;62438;52.228;6.864;2023-01-15T04:16:22;6.21;89.04
74081;SHT31;62438;52.228;6.864;2023-01-15T04:18:23;6.23;88.82
74081;SHT31;62438;52.228;6.864;2023-01-15T04:20:23;6.13;89.14
74081;SHT31;62438;52.228;6.864;2023-01-15T04:22:24;6.16;88.98
74081;SHT31;62438;52.228;6.864;2023-01-15T04:24:25;6.14;88.97
74081;SHT31;62438;52.228;6.864;2023-01-15T04:26:25;6.16;89.01
74081;SHT31;62438;52.228;6.864;2023-01-15T04:28:25;6.14;88.33
74081;SHT31;62438;52.228;6.864;2023-01-15T04:30:26;6.16;88.76
74081;SHT31;62438;52.228;6.864;2023-01-15T04:32:26;6.20;88.45
74081;SHT31;62438;52.228;6.864;2023-01-15T04:34:27;6.20;88.30
74081;SHT31;62438;52.228;6.864;2023-01-15T04:36:28;6.21;88.06
74081;SHT31;62438;52.228;6.864;2023-01-15T04:38:28;6.16;88.29
74081;SHT31;62438;52.228;6.864;2023-01-15T04:40:29;6.10;88.84
74081;SHT31;62438;52.228;6.864;2023-01-15T04:42:48;6.13;88.28
74081;SHT31;62438;52.228;6.864;2023-01-15T04:45:07;6.13;88.43
74081;SHT31;62438;52.228;6.864;2023-01-15T04:47:08;6.16;88.00
74081;SHT31;62438;52.228;6.864;2023-01-15T04:49:14;6.13;88.34
74081;SHT31;62438;52.228;6.864;2023-01-15T04:51:15;6.13;88.40
74081;SHT31;62438;52.228;6.864;2023-01-15T04:53:15;6.09;88.69
74081;SHT31;62438;52.228;6.864;2023-01-15T04:55:16;6.09;88.42
74081;SHT31;62438;52.228;6.864;2023-01-15T04:57:16;6.06;88.81
74081;SHT31;62438;52.228;6.864;2023-01-15T04:59:22;6.07;88.39
74081;SHT31;62438;52.228;6.864;2023-01-15T05:01:23;6.10;88.12
74081;SHT31;62438;52.228;6.864;2023-01-15T05:03:23;6.10;88.07
74081;SHT31;62438;52.228;6.864;2023-01-15T05:05:24;6.19;87.24
74081;SHT31;62438;52.228;6.864;2023-01-15T05:07:24;6.17;87.59
74081;SHT31;62438;52.228;6.864;2023-01-15T05:09:24;6.16;87.36
74081;SHT31;62438;52.228;6.864;2023-01-15T05:11:26;6.17;87.38
74081;SHT31;62438;52.228;6.864;2023-01-15T05:13:27;6.14;87.54
74081;SHT31;62438;52.228;6.864;2023-01-15T05:15:27;6.14;88.10
74081;SHT31;62438;52.228;6.864;2023-01-15T05:17:27;6.16;87.18
74081;SHT31;62438;52.228;6.864;2023-01-15T05:19:28;6.19;87.33
74081;SHT31;62438;52.228;6.864;2023-01-15T05:21:36;6.24;87.09
74081;SHT31;62438;52.228;6.864;2023-01-15T05:23:36;6.28;86.63
74081;SHT31;62438;52.228;6.864;2023-01-15T05:25:38;6.33;86.58
74081;SHT31;62438;52.228;6.864;2023-01-15T05:27:39;6.30;86.82
74081;SHT31;62438;52.228;6.864;2023-01-15T05:29:40;6.24;87.32
74081;SHT31;62438;52.228;6.864;2023-01-15T05:31:40;6.26;87.57
74081;SHT31;62438;52.228;6.864;2023-01-15T05:33:45;6.27;86.81
74081;SHT31;62438;52.228;6.864;2023-01-15T05:35:46;6.30;86.59
74081;SHT31;62438;52.228;6.864;2023-01-15T05:37:46;6.33;86.75
74081;SHT31;62438;52.228;6.864;2023-01-15T05:39:47;6.21;87.35
74081;SHT31;62438;52.228;6.864;2023-01-15T05:41:47;6.20;86.60
74081;SHT31;62438;52.228;6.864;2023-01-15T05:43:48;6.16;87.36
74081;SHT31;62438;52.228;6.864;2023-01-15T05:45:48;6.11;87.20
74081;SHT31;62438;52.228;6.864;2023-01-15T05:47:48;6.07;87.21
74081;SHT31;62438;52.228;6.864;2023-01-15T05:49:49;6.09;87.24
74081;SHT31;62438;52.228;6.864;2023-01-15T05:51:50;6.07;87.21
74081;SHT31;62438;52.228;6.864;2023-01-15T05:53:51;6.03;87.15
74081;SHT31;62438;52.228;6.864;2023-01-15T05:55:51;6.00;87.65
74081;SHT31;62438;52.228;6.864;2023-01-15T05:57:51;5.95;87.61
74081;SHT31;62438;52.228;6.864;2023-01-15T05:59:52;5.95;87.30
74081;SHT31;62438;52.228;6.864;2023-01-15T06:01:54;5.92;87.58
74081;SHT31;62438;52.228;6.864;2023-01-15T06:04:00;5.85;87.77
74081;SHT31;62438;52.228;6.864;2023-01-15T06:06:01;5.86;87.94
74081;SHT31;62438;52.228;6.864;2023-01-15T06:08:01;5.85;87.64
74081;SHT31;62438;52.228;6.864;2023-01-15T06:10:02;5.88;87.11
74081;SHT31;62438;52.228;6.864;2023-01-15T06:12:02;5.83;87.57
74081;SHT31;62438;52.228;6.864;2023-01-15T06:14:03;5.79;87.79
74081;SHT31;62438;52.228;6.864;2023-01-15T06:16:04;5.79;87.46
74081;SHT31;62438;52.228;6.864;2023-01-15T06:18:05;5.75;87.95
74081;SHT31;62438;52.228;6.864;2023-01-15T06:20:06;5.79;87.54
74081;SHT31;62438;52.228;6.864;2023-01-15T06:22:07;5.80;87.70
74081;SHT31;62438;52.228;6.864;2023-01-15T06:24:08;5.78;87.66
74081;SHT31;62438;52.228;6.864;2023-01-15T06:26:16;5.82;87.18
74081;SHT31;62438;52.228;6.864;2023-01-15T06:28:17;5.80;86.99
74081;SHT31;62438;52.228;6.864;2023-01-15T06:30:18;5.80;86.46
74081;SHT31;62438;52.228;6.864;2023-01-15T06:32:18;5.85;85.97
74081;SHT31;62438;52.228;6.864;2023-01-15T06:34:19;5.83;86.04
74081;SHT31;62438;52.228;6.864;2023-01-15T06:36:22;5.86;85.69
74081;SHT31;62438;52.228;6.864;2023-01-15T06:38:22;5.90;85.74
74081;SHT31;62438;52.228;6.864;2023-01-15T06:40:23;5.86;85.83
74081;SHT31;62438;52.228;6.864;2023-01-15T06:42:25;5.79;86.11
74081;SHT31;62438;52.228;6.864;2023-01-15T06:44:44;5.83;86.44
74081;SHT31;62438;52.228;6.864;2023-01-15T06:47:15;5.82;85.95
74081;SHT31;62438;52.228;6.864;2023-01-15T06:49:22;5.79;86.50
74081;SHT31;62438;52.228;6.864;2023-01-15T06:51:23;5.80;85.92
74081;SHT31;62438;52.228;6.864;2023-01-15T06:53:24;5.69;86.63
74081;SHT31;62438;52.228;6.864;2023-01-15T06:55:24;5.73;86.17
74081;SHT31;62438;52.228;6.864;2023-01-15T06:57:25;5.73;86.08
74081;SHT31;62438;52.228;6.864;2023-01-15T06:59:25;5.73;85.92
74081;SHT31;62438;52.228;6.864;2023-01-15T07:01:26;5.70;86.14
74081;SHT31;62438;52.228;6.864;2023-01-15T07:03:29;5.72;86.24
74081;SHT31;62438;52.228;6.864;2023-01-15T07:05:30;5.82;85.51
74081;SHT31;62438;52.228;6.864;2023-01-15T07:07:31;5.79;85.79
74081;SHT31;62438;52.228;6.864;2023-01-15T07:09:31;5.75;85.95
74081;SHT31;62438;52.228;6.864;2023-01-15T07:11:32;5.79;85.61
74081;SHT31;62438;52.228;6.864;2023-01-15T07:13:33;5.82;85.55
74081;SHT31;62438;52.228;6.864;2023-01-15T07:15:34;5.79;85.60
74081;SHT31;62438;52.228;6.864;2023-01-15T07:17:36;5.79;85.56
74081;SHT31;62438;52.228;6.864;2023-01-15T07:19:37;5.79;85.50
74081;SHT31;62438;52.228;6.864;2023-01-15T07:21:38;5.82;85.28
74081;SHT31;62438;52.228;6.864;2023-01-15T07:23:38;5.78;85.41
74081;SHT31;62438;52.228;6.864;2023-01-15T07:25:39;5.80;85.25
74081;SHT31;62438;52.228;6.864;2023-01-15T07:27:39;5.88;84.70
74081;SHT31;62438;52.228;6.864;2023-01-15T07:29:39;5.86;84.80
74081;SHT31;62438;52.228;6.864;2023-01-15T07:31:40;5.88;84.36
74081;SHT31;62438;52.228;6.864;2023-01-15T07:34:11;5.83;85.05
74081;SHT31;62438;52.228;6.864;2023-01-15T07:36:13;5.80;84.92
74081;SHT31;62438;52.228;6.864;2023-01-15T07:38:13;5.79;84.59
74081;SHT31;62438;52.228;6.864;2023-01-15T07:40:14;5.80;84.83
74081;SHT31;62438;52.228;6.864;2023-01-15T07:42:14;5.82;84.35
74081;SHT31;62438;52.228;6.864;2023-01-15T07:44:33;5.83;84.23
74081;SHT31;62438;52.228;6.864;2023-01-15T07:46:52;5.90;83.81
74081;SHT31;62438;52.228;6.864;2023-01-15T07:49:12;5.88;83.83
74081;SHT31;62438;52.228;6.864;2023-01-15T07:51:31;5.95;83.09
74081;SHT31;62438;52.228;6.864;2023-01-15T07:53:31;5.90;83.35
74081;SHT31;62438;52.228;6.864;2023-01-15T07:55:34;5.83;83.89
74081;SHT31;62438;52.228;6.864;2023-01-15T07:57:35;5.82;83.71
74081;SHT31;62438;52.228;6.864;2023-01-15T07:59:36;5.72;84.43
74081;SHT31;62438;52.228;6.864;2023-01-15T08:01:36;5.63;85.22
74081;SHT31;62438;52.228;6.864;2023-01-15T08:03:37;5.54;85.57
74081;SHT31;62438;52.228;6.864;2023-01-15T08:05:39;5.63;85.07
74081;SHT31;62438;52.228;6.864;2023-01-15T08:07:40;5.62;84.97
74081;SHT31;62438;52.228;6.864;2023-01-15T08:09:41;5.58;85.39
74081;SHT31;62438;52.228;6.864;2023-01-15T08:11:42;5.44;86.01
74081;SHT31;62438;52.228;6.864;2023-01-15T08:14:01;5.49;85.07
74081;SHT31;62438;52.228;6.864;2023-01-15T08:16:19;5.61;84.28
74081;SHT31;62438;52.228;6.864;2023-01-15T08:18:20;5.54;84.93
74081;SHT31;62438;52.228;6.864;2023-01-15T08:20:24;5.59;84.20
74081;SHT31;62438;52.228;6.864;2023-01-15T08:22:25;5.52;84.38
74081;SHT31;62438;52.228;6.864;2023-01-15T08:24:26;5.61;84.45
74081;SHT31;62438;52.228;6.864;2023-01-15T08:26:27;5.61;83.94
74081;SHT31;62438;52.228;6.864;2023-01-15T08:28:27;5.54;84.77
74081;SHT31;62438;52.228;6.864;2023-01-15T08:30:28;5.49;85.08
74081;SHT31;62438;52.228;6.864;2023-01-15T08:32:28;5.48;85.15
74081;SHT31;62438;52.228;6.864;2023-01-15T08:34:29;5.51;85.16
74081;SHT31;62438;52.228;6.864;2023-01-15T08:36:29;5.62;84.92
74081;SHT31;62438;52.228;6.864;2023-01-15T08:38:29;5.72;84.03
74081;SHT31;62438;52.228;6.864;2023-01-15T08:40:30;5.79;83.69
74081;SHT31;62438;52.228;6.864;2023-01-15T08:42:30;5.79;84.01
74081;SHT31;62438;52.228;6.864;2023-01-15T08:44:31;5.82;83.56
74081;SHT31;62438;52.228;6.864;2023-01-15T08:46:32;5.90;83.71
74081;SHT31;62438;52.228;6.864;2023-01-15T08:48:33;5.89;84.13
74081;SHT31;62438;52.228;6.864;2023-01-15T08:50:33;5.86;84.40
74081;SHT31;62438;52.228;6.864;2023-01-15T08:52:34;5.98;83.70
74081;SHT31;62438;52.228;6.864;2023-01-15T08:54:35;5.95;83.78
74081;SHT31;62438;52.228;6.864;2023-01-15T08:56:35;5.93;83.77
74081;SHT31;62438;52.228;6.864;2023-01-15T08:58:35;5.98;83.47
74081;SHT31;62438;52.228;6.864;2023-01-15T09:00:36;5.92;83.54
74081;SHT31;62438;52.228;6.864;2023-01-15T09:02:36;5.95;82.91
74081;SHT31;62438;52.228;6.864;2023-01-15T09:04:37;5.96;83.14
74081;SHT31;62438;52.228;6.864;2023-01-15T09:06:38;5.90;82.91
74081;SHT31;62438;52.228;6.864;2023-01-15T09:08:39;5.90;82.64
74081;SHT31;62438;52.228;6.864;2023-01-15T09:10:39;5.93;82.85
74081;SHT31;62438;52.228;6.864;2023-01-15T09:12:40;6.05;81.33
74081;SHT31;62438;52.228;6.864;2023-01-15T09:14:40;6.03;81.99
74081;SHT31;62438;52.228;6.864;2023-01-15T09:16:42;6.05;82.15
74081;SHT31;62438;52.228;6.864;2023-01-15T09:18:42;6.07;82.09
74081;SHT31;62438;52.228;6.864;2023-01-15T09:20:46;6.13;81.60
74081;SHT31;62438;52.228;6.864;2023-01-15T09:22:47;6.20;80.97
74081;SHT31;62438;52.228;6.864;2023-01-15T09:24:48;6.23;81.71
74081;SHT31;62438;52.228;6.864;2023-01-15T09:26:48;6.28;80.35
74081;SHT31;62438;52.228;6.864;2023-01-15T09:28:52;6.28;80.36
74081;SHT31;62438;52.228;6.864;2023-01-15T09:30:53;6.24;80.45
74081;SHT31;62438;52.228;6.864;2023-01-15T09:32:57;6.26;80.24
74081;SHT31;62438;52.228;6.864;2023-01-15T09:34:57;6.26;80.74
74081;SHT31;62438;52.228;6.864;2023-01-15T09:36:59;6.27;80.64
74081;SHT31;62438;52.228;6.864;2023-01-15T09:39:03;6.41;79.60
74081;SHT31;62438;52.228;6.864;2023-01-15T09:41:11;6.41;79.72
74081;SHT31;62438;52.228;6.864;2023-01-15T09:45:57;6.37;78.87
74081;SHT31;62438;52.228;6.864;2023-01-15T09:54:49;6.48;78.92
74081;SHT31;62438;52.228;6.864;2023-01-15T09:56:53;6.58;77.93
74081;SHT31;62438;52.228;6.864;2023-01-15T09:58:55;6.63;77.73
74081;SHT31;62438;52.228;6.864;2023-01-15T10:00:57;6.71;77.83
74081;SHT31;62438;52.228;6.864;2023-01-15T10:03:22;6.77;77.95
74081;SHT31;62438;52.228;6.864;2023-01-15T10:06:08;6.69;77.68
74081;SHT31;62438;52.228;6.864;2023-01-15T10:08:13;6.69;77.78
74081;SHT31;62438;52.228;6.864;2023-01-15T10:10:17;6.79;77.60
74081;SHT31;62438;52.228;6.864;2023-01-15T10:12:27;6.75;78.17
74081;SHT31;62438;52.228;6.864;2023-01-15T10:14:59;6.71;76.52
74081;SHT31;62438;52.228;6.864;2023-01-15T10:17:01;6.69;77.02
74081;SHT31;62438;52.228;6.864;2023-01-15T10:19:02;6.61;77.36
74081;SHT31;62438;52.228;6.864;2023-01-15T10:28:27;6.82;75.66
74081;SHT31;62438;52.228;6.864;2023-01-15T10:30:41;6.96;75.33
74081;SHT31;62438;52.228;6.864;2023-01-15T10:35:57;6.92;76.18
74081;SHT31;62438;52.228;6.864;2023-01-15T10:45:27;6.89;76.19
74081;SHT31;62438;52.228;6.864;2023-01-15T10:47:34;6.92;76.61
74081;SHT31;62438;52.228;6.864;2023-01-15T10:49:36;6.89;76.78
74081;SHT31;62438;52.228;6.864;2023-01-15T10:54:04;6.96;76.12
74081;SHT31;62438;52.228;6.864;2023-01-15T10:56:12;7.10;75.95
74081;SHT31;62438;52.228;6.864;2023-01-15T10:58:50;7.12;76.38
74081;SHT31;62438;52.228;6.864;2023-01-15T11:00:45;7.24;75.60
74081;SHT31;62438;52.228;6.864;2023-01-15T11:03:11;7.33;75.13
74081;SHT31;62438;52.228;6.864;2023-01-15T11:05:16;7.33;75.51
74081;SHT31;62438;52.228;6.864;2023-01-15T11:07:21;7.36;75.97
74081;SHT31;62438;52.228;6.864;2023-01-15T11:09:25;7.28;75.67
74081;SHT31;62438;52.228;6.864;2023-01-15T11:11:45;7.27;75.98
74081;SHT31;62438;52.228;6.864;2023-01-15T11:13:59;7.24;75.68
74081;SHT31;62438;52.228;6.864;2023-01-15T11:16:23;7.24;75.88
74081;SHT31;62438;52.228;6.864;2023-01-15T11:18:32;7.24;75.95
74081;SHT31;62438;52.228;6.864;2023-01-15T11:20:51;7.19;76.71
74081;SHT31;62438;52.228;6.864;2023-01-15T11:22:53;7.20;76.33
74081;SHT31;62438;52.228;6.864;2023-01-15T11:24:57;7.16;76.53
74081;SHT31;62438;52.228;6.864;2023-01-15T11:26:58;7.10;76.76
74081;SHT31;62438;52.228;6.864;2023-01-15T11:29:10;7.15;76.46
74081;SHT31;62438;52.228;6.864;2023-01-15T11:31:13;7.13;76.80
74081;SHT31;62438;52.228;6.864;2023-01-15T11:33:22;7.09;76.92
74081;SHT31;62438;52.228;6.864;2023-01-15T11:35:24;7.15;76.14
74081;SHT31;62438;52.228;6.864;2023-01-15T11:37:25;7.15;76.68
74081;SHT31;62438;52.228;6.864;2023-01-15T11:39:27;7.17;76.86
74081;SHT31;62438;52.228;6.864;2023-01-15T11:41:32;7.17;76.50
74081;SHT31;62438;52.228;6.864;2023-01-15T11:43:56;7.23;76.06
74081;SHT31;62438;52.228;6.864;2023-01-15T11:46:29;7.24;75.90
74081;SHT31;62438;52.228;6.864;2023-01-15T11:48:49;7.24;75.54
74081;SHT31;62438;52.228;6.864;2023-01-15T11:51:09;7.28;75.05
74081;SHT31;62438;52.228;6.864;2023-01-15T11:53:17;7.34;75.68
74081;SHT31;62438;52.228;6.864;2023-01-15T11:55:20;7.43;74.95
74081;SHT31;62438;52.228;6.864;2023-01-15T11:57:28;7.50;74.43
74081;SHT31;62438;52.228;6.864;2023-01-15T11:59:29;7.48;73.86
74081;SHT31;62438;52.228;6.864;2023-01-15T12:01:36;7.53;74.42
74081;SHT31;62438;52.228;6.864;2023-01-15T12:03:39;7.53;73.47
74081;SHT31;62438;52.228;6.864;2023-01-15T12:05:45;7.54;73.69
74081;SHT31;62438;52.228;6.864;2023-01-15T12:07:48;7.50;73.92
74081;SHT31;62438;52.228;6.864;2023-01-15T12:10:15;7.50;73.13
74081;SHT31;62438;52.228;6.864;2023-01-15T12:12:50;7.47;73.46
74081;SHT31;62438;52.228;6.864;2023-01-15T12:15:08;7.38;74.62
74081;SHT31;62438;52.228;6.864;2023-01-15T12:17:30;7.44;73.25
74081;SHT31;62438;52.228;6.864;2023-01-15T12:26:31;7.47;74.81
74081;SHT31;62438;52.228;6.864;2023-01-15T12:28:38;7.42;75.72
74081;SHT31;62438;52.228;6.864;2023-01-15T12:31:12;7.36;75.80
74081;SHT31;62438;52.228;6.864;2023-01-15T12:35:50;7.44;77.06
74081;SHT31;62438;52.228;6.864;2023-01-15T12:38:02;7.43;76.28
74081;SHT31;62438;52.228;6.864;2023-01-15T12:42:16;7.27;76.85
74081;SHT31;62438;52.228;6.864;2023-01-15T12:44:49;7.10;79.45
74081;SHT31;62438;52.228;6.864;2023-01-15T12:47:17;6.82;83.59
74081;SHT31;62438;52.228;6.864;2023-01-15T12:49:41;6.52;84.91
74081;SHT31;62438;52.228;6.864;2023-01-15T12:54:09;6.31;87.66
74081;SHT31;62438;52.228;6.864;2023-01-15T12:56:44;6.23;87.52
74081;SHT31;62438;52.228;6.864;2023-01-15T13:00:50;6.16;87.34
74081;SHT31;62438;52.228;6.864;2023-01-15T13:03:00;6.13;87.26
74081;SHT31;62438;52.228;6.864;2023-01-15T13:05:17;6.14;87.02
74081;SHT31;62438;52.228;6.864;2023-01-15T13:09:42;6.14;87.57
74081;SHT31;62438;52.228;6.864;2023-01-15T13:11:44;6.19;86.10
74081;SHT31;62438;52.228;6.864;2023-01-15T13:13:44;6.20;87.56
74081;SHT31;62438;52.228;6.864;2023-01-15T13:20:35;6.47;84.62
74081;SHT31;62438;52.228;6.864;2023-01-15T13:23:08;6.55;85.04
74081;SHT31;62438;52.228;6.864;2023-01-15T13:25:33;6.49;85.87
74081;SHT31;62438;52.228;6.864;2023-01-15T13:32:38;6.37;86.46
74081;SHT31;62438;52.228;6.864;2023-01-15T13:36:52;6.40;86.10
74081;SHT31;62438;52.228;6.864;2023-01-15T13:38:58;6.31;87.60
74081;SHT31;62438;52.228;6.864;2023-01-15T13:40:59;6.24;87.63
74081;SHT31;62438;52.228;6.864;2023-01-15T13:43:01;6.17;88.37
74081;SHT31;62438;52.228;6.864;2023-01-15T13:47:29;6.02;89.60
74081;SHT31;62438;52.228;6.864;2023-01-15T13:49:34;5.96;89.10
74081;SHT31;62438;52.228;6.864;2023-01-15T13:51:35;5.98;89.49
74081;SHT31;62438;52.228;6.864;2023-01-15T13:53:47;5.90;90.16
74081;SHT31;62438;52.228;6.864;2023-01-15T13:55:51;5.82;90.65
74081;SHT31;62438;52.228;6.864;2023-01-15T13:57:55;5.75;91.48
74081;SHT31;62438;52.228;6.864;2023-01-15T13:59:56;5.70;92.01
74081;SHT31;62438;52.228;6.864;2023-01-15T14:01:56;5.75;91.19
74081;SHT31;62438;52.228;6.864;2023-01-15T14:06:07;5.78;90.96
74081;SHT31;62438;52.228;6.864;2023-01-15T14:08:15;5.86;90.59
74081;SHT31;62438;52.228;6.864;2023-01-15T14:12:59;5.83;91.29
74081;SHT31;62438;52.228;6.864;2023-01-15T14:19:25;5.85;90.59
74081;SHT31;62438;52.228;6.864;2023-01-15T14:21:37;5.88;90.24
74081;SHT31;62438;52.228;6.864;2023-01-15T14:35:35;5.76;91.63
74081;SHT31;62438;52.228;6.864;2023-01-15T14:37:55;5.70;91.85
74081;SHT31;62438;52.228;6.864;2023-01-15T14:40:00;5.70;91.80
74081;SHT31;62438;52.228;6.864;2023-01-15T14:44:40;5.73;91.81
74081;SHT31;62438;52.228;6.864;2023-01-15T14:46:42;5.69;93.03
74081;SHT31;62438;52.228;6.864;2023-01-15T14:48:43;5.79;91.80
74081;SHT31;62438;52.228;6.864;2023-01-15T14:50:45;5.86;90.75
74081;SHT31;62438;52.228;6.864;2023-01-15T14:52:46;5.95;90.06
74081;SHT31;62438;52.228;6.864;2023-01-15T14:54:48;5.92;90.10
74081;SHT31;62438;52.228;6.864;2023-01-15T14:56:51;5.93;89.89
74081;SHT31;62438;52.228;6.864;2023-01-15T14:59:15;5.93;89.93
74081;SHT31;62438;52.228;6.864;2023-01-15T15:04:04;5.96;89.67
74081;SHT31;62438;52.228;6.864;2023-01-15T15:06:10;5.93;89.65